sensor_id;sensor_type;location;lat;lon;timestamp;temperature;humidity
26952;DHT22;14507;52.418;13.398;2023-12-22T00:00:08;5.30;99.90
26952;DHT22;14507;52.418;13.398;2023-12-22T00:02:35;5.30;99.90
26952;DHT22;14507;52.418;13.398;2023-12-22T00:05:00;5.20;99.90
26952;DHT22;14507;52.418;13.398;2023-12-22T00:07:26;5.30;99.90
26952;DHT22;14507;52.418;13.398;2023-12-22T00:09:52;5.10;99.90
26952;DHT22;14507;52.418;13.398;2023-12-22T00:12:17;5.10;99.90
26952;DHT22;14507;52.418;13.398;2023-12-22T00:14:43;5.10;99.90
26952;DHT22;14507;52.418;13.398;2023-12-22T00:17:08;5.00;99.90
26952;DHT22;14507;52.418;13.398;2023-12-22T00:19:34;5.00;99.90
26952;DHT22;14507;52.418;13.398;2023-12-22T00:22:00;4.90;99.90
26952;DHT22;14507;52.418;13.398;2023-12-22T00:24:25;5.00;99.90
26952;DHT22;14507;52.418;13.398;2023-12-22T00:26:51;4.80;99.90
26952;DHT22;14507;52.418;13.398;2023-12-22T00:29:16;5.00;99.90
26952;DHT22;14507;52.418;13.398;2023-12-22T00:31:42;4.80;99.90
26952;DHT22;14507;52.418;13.398;2023-12-22T00:34:07;4.90;99.90
26952;DHT22;14507;52.418;13.398;2023-12-22T00:36:33;4.90;99.90
26952;DHT22;14507;52.418;13.398;2023-12-22T00:38:59;4.90;99.90
26952;DHT22;14507;52.418;13.398;2023-12-22T00:41:24;4.80;99.90
26952;DHT22;14507;52.418;13.398;2023-12-22T00:43:50;4.90;99.90
26952;DHT22;14507;52.418;13.398;2023-12-22T00:46:15;4.90;99.90
26952;DHT22;14507;52.418;13.398;2023-12-22T00:48:41;4.80;99.90
26952;DHT22;14507;52.418;13.398;2023-12-22T00:51:07;4.90;99.90
26952;DHT22;14507;52.418;13.398;2023-12-22T00:53:35;5.00;99.90
26952;DHT22;14507;52.418;13.398;2023-12-22T00:56:00;4.90;99.90
26952;DHT22;14507;52.418;13.398;2023-12-22T00:58:29;4.90;99.90
26952;DHT22;14507;52.418;13.398;2023-12-22T01:00:55;5.00;99.90
26952;DHT22;14507;52.418;13.398;2023-12-22T01:03:20;4.90;99.90
26952;DHT22;14507;52.418;13.398;2023-12-22T01:05:46;4.90;99.90
26952;DHT22;14507;52.418;13.398;2023-12-22T01:08:12;4.80;99.90
26952;DHT22;14507;52.418;13.398;2023-12-22T01:10:37;4.80;99.90
26952;DHT22;14507;52.418;13.398;2023-12-22T01:13:03;4.80;99.90
26952;DHT22;14507;52.418;13.398;2023-12-22T01:15:28;4.80;99.90
26952;DHT22;14507;52.418;13.398;2023-12-22T01:17:54;4.90;99.90
26952;DHT22;14507;52.418;13.398;2023-12-22T01:20:20;4.80;99.90
26952;DHT22;14507;52.418;13.398;2023-12-22T01:22:45;4.80;99.90
26952;DHT22;14507;52.418;13.398;2023-12-22T01:25:11;4.80;99.90
26952;DHT22;14507;52.418;13.398;2023-12-22T01:27:36;4.80;99.90
26952;DHT22;14507;52.418;13.398;2023-12-22T01:30:02;4.80;99.90
26952;DHT22;14507;52.418;13.398;2023-12-22T01:32:28;4.80;99.90
26952;DHT22;14507;52.418;13.398;2023-12-22T01:35:00;4.80;99.90
26952;DHT22;14507;52.418;13.398;2023-12-22T01:37:32;4.80;99.90
26952;DHT22;14507;52.418;13.398;2023-12-22T01:39:57;4.80;99.90
26952;DHT22;14507;52.418;13.398;2023-12-22T01:42:23;4.80;99.90
26952;DHT22;14507;52.418;13.398;2023-12-22T01:44:49;4.80;99.90
26952;DHT22;14507;52.418;13.398;2023-12-22T01:47:14;4.80;99.90
26952;DHT22;14507;52.418;13.398;2023-12-22T01:49:40;4.80;99.90
26952;DHT22;14507;52.418;13.398;2023-12-22T01:52:06;4.80;99.90
26952;DHT22;14507;52.418;13.398;2023-12-22T01:54:32;4.70;99.90
26952;DHT22;14507;52.418;13.398;2023-12-22T01:56:58;5.20;99.90
26952;DHT22;14507;52.418;13.398;2023-12-22T01:59:25;4.70;99.90
26952;DHT22;14507;52.418;13.398;2023-12-22T02:01:52;4.70;99.90
26952;DHT22;14507;52.418;13.398;2023-12-22T02:04:18;4.70;99.90
26952;DHT22;14507;52.418;13.398;2023-12-22T02:06:44;4.70;99.90
26952;DHT22;14507;52.418;13.398;2023-12-22T02:09:10;4.60;99.90
26952;DHT22;14507;52.418;13.398;2023-12-22T02:11:38;4.70;99.90
26952;DHT22;14507;52.418;13.398;2023-12-22T02:14:04;4.80;99.90
26952;DHT22;14507;52.418;13.398;2023-12-22T02:16:37;4.70;99.90
26952;DHT22;14507;52.418;13.398;2023-12-22T02:19:52;4.70;99.90
26952;DHT22;14507;52.418;13.398;2023-12-22T02:22:04;4.70;99.90
26952;DHT22;14507;52.418;13.398;2023-12-22T02:24:30;4.70;99.90
26952;DHT22;14507;52.418;13.398;2023-12-22T02:30:11;4.60;99.90
26952;DHT22;14507;52.418;13.398;2023-12-22T02:32:41;4.60;99.90
26952;DHT22;14507;52.418;13.398;2023-12-22T02:35:10;4.70;99.90
26952;DHT22;14507;52.418;13.398;2023-12-22T02:37:39;4.60;99.90
26952;DHT22;14507;52.418;13.398;2023-12-22T02:40:05;4.60;99.90
26952;DHT22;14507;52.418;13.398;2023-12-22T02:42:33;4.60;99.90
26952;DHT22;14507;52.418;13.398;2023-12-22T02:45:00;4.60;99.90
26952;DHT22;14507;52.418;13.398;2023-12-22T02:47:26;4.60;99.90
26952;DHT22;14507;52.418;13.398;2023-12-22T02:49:55;4.60;99.90
26952;DHT22;14507;52.418;13.398;2023-12-22T02:52:20;4.60;99.90
26952;DHT22;14507;52.418;13.398;2023-12-22T02:54:46;4.60;99.90
26952;DHT22;14507;52.418;13.398;2023-12-22T02:57:12;4.60;99.90
26952;DHT22;14507;52.418;13.398;2023-12-22T02:59:38;4.60;99.90
26952;DHT22;14507;52.418;13.398;2023-12-22T03:02:04;4.50;99.90
26952;DHT22;14507;52.418;13.398;2023-12-22T03:04:30;4.50;99.90
26952;DHT22;14507;52.418;13.398;2023-12-22T03:06:56;4.50;99.90
26952;DHT22;14507;52.418;13.398;2023-12-22T03:09:22;4.50;99.90
26952;DHT22;14507;52.418;13.398;2023-12-22T03:11:48;4.50;99.90
26952;DHT22;14507;52.418;13.398;2023-12-22T03:14:14;4.50;99.90
26952;DHT22;14507;52.418;13.398;2023-12-22T03:16:40;4.50;99.90
26952;DHT22;14507;52.418;13.398;2023-12-22T03:19:07;4.50;99.90
26952;DHT22;14507;52.418;13.398;2023-12-22T03:21:32;4.40;99.90
26952;DHT22;14507;52.418;13.398;2023-12-22T03:23:58;4.50;99.90
26952;DHT22;14507;52.418;13.398;2023-12-22T03:26:26;4.30;99.90
26952;DHT22;14507;52.418;13.398;2023-12-22T03:28:52;4.40;99.90
26952;DHT22;14507;52.418;13.398;2023-12-22T03:31:18;4.40;99.90
26952;DHT22;14507;52.418;13.398;2023-12-22T03:33:44;4.40;99.90
26952;DHT22;14507;52.418;13.398;2023-12-22T03:36:09;4.40;99.90
26952;DHT22;14507;52.418;13.398;2023-12-22T03:38:35;4.40;99.90
26952;DHT22;14507;52.418;13.398;2023-12-22T03:41:00;4.40;99.90
26952;DHT22;14507;52.418;13.398;2023-12-22T03:43:26;4.40;99.90
26952;DHT22;14507;52.418;13.398;2023-12-22T03:45:52;4.40;99.90
26952;DHT22;14507;52.418;13.398;2023-12-22T03:48:17;4.40;99.90
26952;DHT22;14507;52.418;13.398;2023-12-22T03:50:43;4.40;99.90
26952;DHT22;14507;52.418;13.398;2023-12-22T03:53:09;4.40;99.90
26952;DHT22;14507;52.418;13.398;2023-12-22T03:55:34;4.40;99.90
26952;DHT22;14507;52.418;13.398;2023-12-22T03:58:00;4.50;99.90
26952;DHT22;14507;52.418;13.398;2023-12-22T04:00:26;4.50;99.90
26952;DHT22;14507;52.418;13.398;2023-12-22T04:02:51;4.50;99.90
26952;DHT22;14507;52.418;13.398;2023-12-22T04:05:17;4.50;99.90
26952;DHT22;14507;52.418;13.398;2023-12-22T04:07:43;4.60;99.90
26952;DHT22;14507;52.418;13.398;2023-12-22T04:10:08;4.60;99.90
26952;DHT22;14507;52.418;13.398;2023-12-22T04:12:34;4.60;99.90
26952;DHT22;14507;52.418;13.398;2023-12-22T04:15:00;4.60;99.90
26952;DHT22;14507;52.418;13.398;2023-12-22T04:17:25;4.60;99.90
26952;DHT22;14507;52.418;13.398;2023-12-22T04:19:51;4.50;99.90
26952;DHT22;14507;52.418;13.398;2023-12-22T04:22:17;4.50;99.90
26952;DHT22;14507;52.418;13.398;2023-12-22T04:24:43;4.40;99.90
26952;DHT22;14507;52.418;13.398;2023-12-22T04:27:09;4.40;99.90
26952;DHT22;14507;52.418;13.398;2023-12-22T04:29:34;4.30;99.90
26952;DHT22;14507;52.418;13.398;2023-12-22T04:32:00;4.30;99.90
26952;DHT22;14507;52.418;13.398;2023-12-22T04:34:25;4.30;99.90
26952;DHT22;14507;52.418;13.398;2023-12-22T04:36:51;4.30;99.90
26952;DHT22;14507;52.418;13.398;2023-12-22T04:39:17;4.20;99.90
26952;DHT22;14507;52.418;13.398;2023-12-22T04:41:43;4.60;99.90
26952;DHT22;14507;52.418;13.398;2023-12-22T04:44:38;4.10;99.90
26952;DHT22;14507;52.418;13.398;2023-12-22T04:47:09;4.10;99.90
26952;DHT22;14507;52.418;13.398;2023-12-22T04:49:38;4.10;99.90
26952;DHT22;14507;52.418;13.398;2023-12-22T04:52:04;4.10;99.90
26952;DHT22;14507;52.418;13.398;2023-12-22T04:54:32;4.20;99.90
26952;DHT22;14507;52.418;13.398;2023-12-22T04:56:57;4.20;99.90
26952;DHT22;14507;52.418;13.398;2023-12-22T04:59:23;4.20;99.90
26952;DHT22;14507;52.418;13.398;2023-12-22T05:01:49;4.20;99.90
26952;DHT22;14507;52.418;13.398;2023-12-22T05:04:14;4.10;99.90
26952;DHT22;14507;52.418;13.398;2023-12-22T05:06:40;4.10;99.90
26952;DHT22;14507;52.418;13.398;2023-12-22T05:09:06;4.00;99.90
26952;DHT22;14507;52.418;13.398;2023-12-22T05:11:31;3.70;99.90
26952;DHT22;14507;52.418;13.398;2023-12-22T05:13:57;4.70;99.90
26952;DHT22;14507;52.418;13.398;2023-12-22T05:16:22;4.30;99.90
26952;DHT22;14507;52.418;13.398;2023-12-22T05:18:48;3.60;99.90
26952;DHT22;14507;52.418;13.398;2023-12-22T05:21:14;3.60;99.90
26952;DHT22;14507;52.418;13.398;2023-12-22T05:23:40;3.60;99.90
26952;DHT22;14507;52.418;13.398;2023-12-22T05:26:05;3.50;99.90
26952;DHT22;14507;52.418;13.398;2023-12-22T05:28:32;3.50;99.90
26952;DHT22;14507;52.418;13.398;2023-12-22T05:30:58;3.50;99.90
26952;DHT22;14507;52.418;13.398;2023-12-22T05:33:23;3.50;99.90
26952;DHT22;14507;52.418;13.398;2023-12-22T05:35:49;3.50;99.90
26952;DHT22;14507;52.418;13.398;2023-12-22T05:38:15;3.50;99.90
26952;DHT22;14507;52.418;13.398;2023-12-22T05:40:41;3.60;99.90
26952;DHT22;14507;52.418;13.398;2023-12-22T05:43:07;3.50;99.90
26952;DHT22;14507;52.418;13.398;2023-12-22T05:45:32;3.40;99.90
26952;DHT22;14507;52.418;13.398;2023-12-22T05:47:58;3.50;99.90
26952;DHT22;14507;52.418;13.398;2023-12-22T05:50:24;3.50;99.90
26952;DHT22;14507;52.418;13.398;2023-12-22T05:52:49;3.50;99.90
26952;DHT22;14507;52.418;13.398;2023-12-22T05:55:15;3.50;99.90
26952;DHT22;14507;52.418;13.398;2023-12-22T05:57:41;3.50;99.90
26952;DHT22;14507;52.418;13.398;2023-12-22T06:00:07;3.50;99.90
26952;DHT22;14507;52.418;13.398;2023-12-22T06:02:35;3.40;99.90
26952;DHT22;14507;52.418;13.398;2023-12-22T06:05:00;5.20;99.90
26952;DHT22;14507;52.418;13.398;2023-12-22T06:07:27;4.40;99.90
26952;DHT22;14507;52.418;13.398;2023-12-22T06:09:52;3.40;99.90
26952;DHT22;14507;52.418;13.398;2023-12-22T06:12:18;3.40;99.90
26952;DHT22;14507;52.418;13.398;2023-12-22T06:14:43;3.30;99.90
26952;DHT22;14507;52.418;13.398;2023-12-22T06:17:09;3.40;99.90
26952;DHT22;14507;52.418;13.398;2023-12-22T06:19:38;3.30;99.90
26952;DHT22;14507;52.418;13.398;2023-12-22T06:22:04;3.40;99.90
26952;DHT22;14507;52.418;13.398;2023-12-22T06:24:29;3.80;99.90
26952;DHT22;14507;52.418;13.398;2023-12-22T06:26:55;3.40;99.90
26952;DHT22;14507;52.418;13.398;2023-12-22T06:29:21;4.80;99.90
26952;DHT22;14507;52.418;13.398;2023-12-22T06:31:46;3.50;99.90
26952;DHT22;14507;52.418;13.398;2023-12-22T06:34:16;3.40;99.90
26952;DHT22;14507;52.418;13.398;2023-12-22T06:36:42;3.40;99.90
26952;DHT22;14507;52.418;13.398;2023-12-22T06:39:08;3.40;99.90
26952;DHT22;14507;52.418;13.398;2023-12-22T06:41:34;3.40;99.90
26952;DHT22;14507;52.418;13.398;2023-12-22T06:44:00;3.50;99.90
26952;DHT22;14507;52.418;13.398;2023-12-22T06:46:26;5.00;99.90
26952;DHT22;14507;52.418;13.398;2023-12-22T06:48:52;3.50;99.90
26952;DHT22;14507;52.418;13.398;2023-12-22T06:51:23;3.40;99.90
26952;DHT22;14507;52.418;13.398;2023-12-22T06:53:50;3.50;99.90
26952;DHT22;14507;52.418;13.398;2023-12-22T06:56:20;3.50;99.90
26952;DHT22;14507;52.418;13.398;2023-12-22T06:58:46;3.50;99.90
26952;DHT22;14507;52.418;13.398;2023-12-22T07:01:25;3.50;99.90
26952;DHT22;14507;52.418;13.398;2023-12-22T07:03:51;3.60;99.90
26952;DHT22;14507;52.418;13.398;2023-12-22T07:06:21;3.50;99.90
26952;DHT22;14507;52.418;13.398;2023-12-22T07:11:37;3.60;99.90
26952;DHT22;14507;52.418;13.398;2023-12-22T07:14:03;3.60;99.90
26952;DHT22;14507;52.418;13.398;2023-12-22T07:16:28;3.50;99.90
26952;DHT22;14507;52.418;13.398;2023-12-22T07:18:54;3.50;99.90
26952;DHT22;14507;52.418;13.398;2023-12-22T07:21:19;3.80;99.90
26952;DHT22;14507;52.418;13.398;2023-12-22T07:23:45;4.40;99.90
26952;DHT22;14507;52.418;13.398;2023-12-22T07:26:11;3.60;99.90
26952;DHT22;14507;52.418;13.398;2023-12-22T07:28:37;3.60;99.90
26952;DHT22;14507;52.418;13.398;2023-12-22T07:31:03;3.70;99.90
26952;DHT22;14507;52.418;13.398;2023-12-22T07:33:28;3.70;99.90
26952;DHT22;14507;52.418;13.398;2023-12-22T07:35:54;4.40;99.90
26952;DHT22;14507;52.418;13.398;2023-12-22T07:38:20;3.70;99.90
26952;DHT22;14507;52.418;13.398;2023-12-22T07:40:45;3.80;99.90
26952;DHT22;14507;52.418;13.398;2023-12-22T07:43:12;3.80;99.90
26952;DHT22;14507;52.418;13.398;2023-12-22T07:45:38;3.80;99.90
26952;DHT22;14507;52.418;13.398;2023-12-22T07:48:04;3.90;99.90
26952;DHT22;14507;52.418;13.398;2023-12-22T07:50:30;3.90;99.90
26952;DHT22;14507;52.418;13.398;2023-12-22T07:52:55;3.90;99.90
26952;DHT22;14507;52.418;13.398;2023-12-22T07:55:21;3.90;99.90
26952;DHT22;14507;52.418;13.398;2023-12-22T07:57:47;3.90;99.90
26952;DHT22;14507;52.418;13.398;2023-12-22T08:00:13;4.20;99.90
26952;DHT22;14507;52.418;13.398;2023-12-22T08:02:38;4.00;99.90
26952;DHT22;14507;52.418;13.398;2023-12-22T08:05:04;4.00;99.90
26952;DHT22;14507;52.418;13.398;2023-12-22T08:07:30;4.00;99.90
26952;DHT22;14507;52.418;13.398;2023-12-22T08:09:56;4.00;99.90
26952;DHT22;14507;52.418;13.398;2023-12-22T08:12:23;4.10;99.90
26952;DHT22;14507;52.418;13.398;2023-12-22T08:14:49;4.10;99.90
26952;DHT22;14507;52.418;13.398;2023-12-22T08:17:14;4.60;99.90
26952;DHT22;14507;52.418;13.398;2023-12-22T08:19:40;4.10;99.90
26952;DHT22;14507;52.418;13.398;2023-12-22T08:22:09;4.10;99.90
26952;DHT22;14507;52.418;13.398;2023-12-22T08:24:36;4.00;99.90
26952;DHT22;14507;52.418;13.398;2023-12-22T08:27:01;3.90;99.90
26952;DHT22;14507;52.418;13.398;2023-12-22T08:29:27;4.00;99.90
26952;DHT22;14507;52.418;13.398;2023-12-22T08:31:53;4.00;99.90
26952;DHT22;14507;52.418;13.398;2023-12-22T08:34:19;3.90;99.90
26952;DHT22;14507;52.418;13.398;2023-12-22T08:36:44;4.00;99.90
26952;DHT22;14507;52.418;13.398;2023-12-22T08:39:10;4.10;99.90
26952;DHT22;14507;52.418;13.398;2023-12-22T08:41:36;4.00;99.90
26952;DHT22;14507;52.418;13.398;2023-12-22T08:44:04;4.00;99.90
26952;DHT22;14507;52.418;13.398;2023-12-22T08:46:29;4.00;99.90
26952;DHT22;14507;52.418;13.398;2023-12-22T08:48:56;4.00;99.90
26952;DHT22;14507;52.418;13.398;2023-12-22T08:51:22;4.00;99.90
26952;DHT22;14507;52.418;13.398;2023-12-22T08:53:47;4.00;99.90
26952;DHT22;14507;52.418;13.398;2023-12-22T08:56:15;4.10;99.90
26952;DHT22;14507;52.418;13.398;2023-12-22T08:58:42;3.40;99.90
26952;DHT22;14507;52.418;13.398;2023-12-22T09:01:08;4.10;99.90
26952;DHT22;14507;52.418;13.398;2023-12-22T09:03:39;4.10;99.90
26952;DHT22;14507;52.418;13.398;2023-12-22T09:06:09;4.10;99.90
26952;DHT22;14507;52.418;13.398;2023-12-22T09:08:34;4.10;99.90
26952;DHT22;14507;52.418;13.398;2023-12-22T09:11:00;4.10;99.90
26952;DHT22;14507;52.418;13.398;2023-12-22T09:13:26;4.10;99.90
26952;DHT22;14507;52.418;13.398;2023-12-22T09:15:51;4.30;99.90
26952;DHT22;14507;52.418;13.398;2023-12-22T09:18:17;4.10;99.90
26952;DHT22;14507;52.418;13.398;2023-12-22T09:20:42;4.20;99.90
26952;DHT22;14507;52.418;13.398;2023-12-22T09:23:08;4.20;99.90
26952;DHT22;14507;52.418;13.398;2023-12-22T09:25:35;4.20;99.90
26952;DHT22;14507;52.418;13.398;2023-12-22T09:28:01;4.20;99.90
26952;DHT22;14507;52.418;13.398;2023-12-22T09:30:27;4.20;99.90
26952;DHT22;14507;52.418;13.398;2023-12-22T09:32:52;4.30;99.90
26952;DHT22;14507;52.418;13.398;2023-12-22T09:35:18;4.30;99.90
26952;DHT22;14507;52.418;13.398;2023-12-22T09:37:43;4.30;99.90
26952;DHT22;14507;52.418;13.398;2023-12-22T09:40:09;4.40;99.90
26952;DHT22;14507;52.418;13.398;2023-12-22T09:42:38;4.40;99.90
26952;DHT22;14507;52.418;13.398;2023-12-22T09:45:07;4.50;99.90
26952;DHT22;14507;52.418;13.398;2023-12-22T09:47:33;4.50;99.90
26952;DHT22;14507;52.418;13.398;2023-12-22T09:50:01;4.50;99.90
26952;DHT22;14507;52.418;13.398;2023-12-22T09:52:28;4.50;99.90
26952;DHT22;14507;52.418;13.398;2023-12-22T09:54:55;4.60;99.90
26952;DHT22;14507;52.418;13.398;2023-12-22T09:57:23;4.60;99.90
26952;DHT22;14507;52.418;13.398;2023-12-22T09:59:51;4.50;99.90
26952;DHT22;14507;52.418;13.398;2023-12-22T10:02:19;4.60;99.90
26952;DHT22;14507;52.418;13.398;2023-12-22T10:04:45;4.70;99.90
26952;DHT22;14507;52.418;13.398;2023-12-22T10:07:12;4.80;99.90
26952;DHT22;14507;52.418;13.398;2023-12-22T10:09:41;4.70;99.90
26952;DHT22;14507;52.418;13.398;2023-12-22T10:12:09;4.80;99.90
26952;DHT22;14507;52.418;13.398;2023-12-22T10:14:37;4.90;99.90
26952;DHT22;14507;52.418;13.398;2023-12-22T10:17:04;4.90;99.90
26952;DHT22;14507;52.418;13.398;2023-12-22T10:19:30;5.10;99.90
26952;DHT22;14507;52.418;13.398;2023-12-22T10:21:56;5.00;99.90
26952;DHT22;14507;52.418;13.398;2023-12-22T10:24:41;5.00;99.90
26952;DHT22;14507;52.418;13.398;2023-12-22T10:27:08;5.00;99.90
26952;DHT22;14507;52.418;13.398;2023-12-22T10:29:34;5.00;99.90
26952;DHT22;14507;52.418;13.398;2023-12-22T10:32:04;5.00;99.90
26952;DHT22;14507;52.418;13.398;2023-12-22T10:34:30;5.10;99.90
26952;DHT22;14507;52.418;13.398;2023-12-22T10:36:57;5.10;99.90
26952;DHT22;14507;52.418;13.398;2023-12-22T10:39:22;5.10;99.90
26952;DHT22;14507;52.418;13.398;2023-12-22T10:41:48;5.10;99.90
26952;DHT22;14507;52.418;13.398;2023-12-22T10:44:17;5.20;99.90
26952;DHT22;14507;52.418;13.398;2023-12-22T10:46:47;5.20;99.90
26952;DHT22;14507;52.418;13.398;2023-12-22T10:49:12;5.20;99.90
26952;DHT22;14507;52.418;13.398;2023-12-22T10:51:38;5.20;99.90
26952;DHT22;14507;52.418;13.398;2023-12-22T10:54:04;5.20;99.90
26952;DHT22;14507;52.418;13.398;2023-12-22T10:56:33;5.20;99.90
26952;DHT22;14507;52.418;13.398;2023-12-22T10:58:59;5.20;99.90
26952;DHT22;14507;52.418;13.398;2023-12-22T11:01:28;5.20;99.90
26952;DHT22;14507;52.418;13.398;2023-12-22T11:03:58;5.20;99.90
26952;DHT22;14507;52.418;13.398;2023-12-22T11:06:27;5.30;99.90
26952;DHT22;14507;52.418;13.398;2023-12-22T11:08:56;5.30;99.90
26952;DHT22;14507;52.418;13.398;2023-12-22T11:11:32;5.30;99.90
26952;DHT22;14507;52.418;13.398;2023-12-22T11:14:00;5.30;99.90
26952;DHT22;14507;52.418;13.398;2023-12-22T11:16:27;5.30;99.90
26952;DHT22;14507;52.418;13.398;2023-12-22T11:18:54;5.30;99.90
26952;DHT22;14507;52.418;13.398;2023-12-22T11:21:24;5.30;99.90
26952;DHT22;14507;52.418;13.398;2023-12-22T11:23:51;5.40;99.90
26952;DHT22;14507;52.418;13.398;2023-12-22T11:26:21;5.30;99.90
26952;DHT22;14507;52.418;13.398;2023-12-22T11:28:50;5.40;99.90
26952;DHT22;14507;52.418;13.398;2023-12-22T11:31:16;5.30;99.90
26952;DHT22;14507;52.418;13.398;2023-12-22T11:33:49;5.30;99.90
26952;DHT22;14507;52.418;13.398;2023-12-22T11:36:16;5.30;99.90
26952;DHT22;14507;52.418;13.398;2023-12-22T11:38:44;5.30;99.90
26952;DHT22;14507;52.418;13.398;2023-12-22T11:41:28;5.40;99.90
26952;DHT22;14507;52.418;13.398;2023-12-22T11:43:56;5.40;99.90
26952;DHT22;14507;52.418;13.398;2023-12-22T11:46:22;5.40;99.90
26952;DHT22;14507;52.418;13.398;2023-12-22T11:48:52;5.40;99.90
26952;DHT22;14507;52.418;13.398;2023-12-22T11:51:19;5.40;99.90
26952;DHT22;14507;52.418;13.398;2023-12-22T11:53:45;5.40;99.90
26952;DHT22;14507;52.418;13.398;2023-12-22T11:56:11;5.50;99.90
26952;DHT22;14507;52.418;13.398;2023-12-22T11:58:42;5.90;99.90
26952;DHT22;14507;52.418;13.398;2023-12-22T12:01:14;5.40;99.90
26952;DHT22;14507;52.418;13.398;2023-12-22T12:03:57;5.40;99.90
26952;DHT22;14507;52.418;13.398;2023-12-22T12:08:59;5.40;99.90
26952;DHT22;14507;52.418;13.398;2023-12-22T12:14:32;5.40;99.90
26952;DHT22;14507;52.418;13.398;2023-12-22T12:17:09;5.30;99.90
26952;DHT22;14507;52.418;13.398;2023-12-22T12:19:37;5.30;99.90
26952;DHT22;14507;52.418;13.398;2023-12-22T12:22:03;5.30;99.90
26952;DHT22;14507;52.418;13.398;2023-12-22T12:24:29;5.50;99.90
26952;DHT22;14507;52.418;13.398;2023-12-22T12:26:55;5.30;99.90
26952;DHT22;14507;52.418;13.398;2023-12-22T12:29:21;5.30;99.90
26952;DHT22;14507;52.418;13.398;2023-12-22T12:31:47;5.30;99.90
26952;DHT22;14507;52.418;13.398;2023-12-22T12:34:13;5.30;99.90
26952;DHT22;14507;52.418;13.398;2023-12-22T12:36:41;5.30;99.90
26952;DHT22;14507;52.418;13.398;2023-12-22T12:39:08;5.40;99.90
26952;DHT22;14507;52.418;13.398;2023-12-22T12:41:38;5.30;99.90
26952;DHT22;14507;52.418;13.398;2023-12-22T12:44:06;5.30;99.90
26952;DHT22;14507;52.418;13.398;2023-12-22T12:46:33;5.40;99.90
26952;DHT22;14507;52.418;13.398;2023-12-22T12:49:18;5.40;99.90
26952;DHT22;14507;52.418;13.398;2023-12-22T12:51:46;5.30;99.90
26952;DHT22;14507;52.418;13.398;2023-12-22T12:54:13;5.30;99.90
26952;DHT22;14507;52.418;13.398;2023-12-22T12:56:43;5.30;99.90
26952;DHT22;14507;52.418;13.398;2023-12-22T12:59:13;5.30;99.90
26952;DHT22;14507;52.418;13.398;2023-12-22T13:01:43;5.40;99.90
26952;DHT22;14507;52.418;13.398;2023-12-22T13:04:10;5.40;99.90
26952;DHT22;14507;52.418;13.398;2023-12-22T13:06:45;5.40;99.90
26952;DHT22;14507;52.418;13.398;2023-12-22T13:09:12;5.50;99.90
26952;DHT22;14507;52.418;13.398;2023-12-22T13:11:40;5.50;99.90
26952;DHT22;14507;52.418;13.398;2023-12-22T13:14:06;5.50;99.90
26952;DHT22;14507;52.418;13.398;2023-12-22T13:16:33;5.60;99.90
26952;DHT22;14507;52.418;13.398;2023-12-22T13:18:59;5.60;99.90
26952;DHT22;14507;52.418;13.398;2023-12-22T13:21:26;5.70;99.90
26952;DHT22;14507;52.418;13.398;2023-12-22T13:24:14;5.60;99.90
26952;DHT22;14507;52.418;13.398;2023-12-22T13:26:41;5.60;99.90
26952;DHT22;14507;52.418;13.398;2023-12-22T13:29:07;5.50;99.90
26952;DHT22;14507;52.418;13.398;2023-12-22T13:31:36;5.50;99.90
26952;DHT22;14507;52.418;13.398;2023-12-22T13:34:02;5.40;99.90
26952;DHT22;14507;52.418;13.398;2023-12-22T13:36:34;5.40;99.90
26952;DHT22;14507;52.418;13.398;2023-12-22T13:39:00;5.40;99.90
26952;DHT22;14507;52.418;13.398;2023-12-22T13:41:26;5.30;99.90
26952;DHT22;14507;52.418;13.398;2023-12-22T13:43:52;5.30;99.90
26952;DHT22;14507;52.418;13.398;2023-12-22T13:46:18;5.30;99.90
26952;DHT22;14507;52.418;13.398;2023-12-22T13:48:44;5.30;99.90
26952;DHT22;14507;52.418;13.398;2023-12-22T13:51:10;5.30;99.90
26952;DHT22;14507;52.418;13.398;2023-12-22T13:53:49;5.30;99.90
26952;DHT22;14507;52.418;13.398;2023-12-22T13:56:15;5.30;99.90
26952;DHT22;14507;52.418;13.398;2023-12-22T13:58:45;5.30;99.90
26952;DHT22;14507;52.418;13.398;2023-12-22T14:01:17;5.30;99.90
26952;DHT22;14507;52.418;13.398;2023-12-22T14:03:43;5.30;99.90
26952;DHT22;14507;52.418;13.398;2023-12-22T14:06:12;5.40;99.90
26952;DHT22;14507;52.418;13.398;2023-12-22T14:08:41;5.40;99.90
26952;DHT22;14507;52.418;13.398;2023-12-22T14:11:09;5.40;99.90
26952;DHT22;14507;52.418;13.398;2023-12-22T14:13:35;5.40;99.90
26952;DHT22;14507;52.418;13.398;2023-12-22T14:16:05;5.40;99.90
26952;DHT22;14507;52.418;13.398;2023-12-22T14:18:31;5.30;99.90
26952;DHT22;14507;52.418;13.398;2023-12-22T14:20:57;5.30;99.90
26952;DHT22;14507;52.418;13.398;2023-12-22T14:23:24;5.20;99.90
26952;DHT22;14507;52.418;13.398;2023-12-22T14:25:49;5.10;99.90
26952;DHT22;14507;52.418;13.398;2023-12-22T14:28:15;5.10;99.90
26952;DHT22;14507;52.418;13.398;2023-12-22T14:30:40;5.00;99.90
26952;DHT22;14507;52.418;13.398;2023-12-22T14:33:06;5.00;99.90
26952;DHT22;14507;52.418;13.398;2023-12-22T14:35:32;4.90;99.90
26952;DHT22;14507;52.418;13.398;2023-12-22T14:37:58;4.80;99.90
26952;DHT22;14507;52.418;13.398;2023-12-22T14:40:23;4.80;99.90
26952;DHT22;14507;52.418;13.398;2023-12-22T14:42:50;4.70;99.90
26952;DHT22;14507;52.418;13.398;2023-12-22T14:45:16;4.70;99.90
26952;DHT22;14507;52.418;13.398;2023-12-22T14:47:41;4.70;99.90
26952;DHT22;14507;52.418;13.398;2023-12-22T14:50:07;4.60;99.90
26952;DHT22;14507;52.418;13.398;2023-12-22T14:52:33;4.60;99.90
26952;DHT22;14507;52.418;13.398;2023-12-22T14:54:59;4.60;99.90
26952;DHT22;14507;52.418;13.398;2023-12-22T14:57:25;4.50;99.90
26952;DHT22;14507;52.418;13.398;2023-12-22T14:59:52;4.40;99.90
26952;DHT22;14507;52.418;13.398;2023-12-22T15:02:18;4.40;99.90
26952;DHT22;14507;52.418;13.398;2023-12-22T15:04:44;4.40;99.90
26952;DHT22;14507;52.418;13.398;2023-12-22T15:07:13;4.40;99.90
26952;DHT22;14507;52.418;13.398;2023-12-22T15:09:39;4.50;99.90
26952;DHT22;14507;52.418;13.398;2023-12-22T15:12:05;4.40;99.90
26952;DHT22;14507;52.418;13.398;2023-12-22T15:14:31;4.40;99.90
26952;DHT22;14507;52.418;13.398;2023-12-22T15:16:56;4.40;99.90
26952;DHT22;14507;52.418;13.398;2023-12-22T15:19:22;4.30;99.90
26952;DHT22;14507;52.418;13.398;2023-12-22T15:21:47;4.50;99.90
26952;DHT22;14507;52.418;13.398;2023-12-22T15:24:13;4.30;99.90
26952;DHT22;14507;52.418;13.398;2023-12-22T15:26:39;4.40;99.90
26952;DHT22;14507;52.418;13.398;2023-12-22T15:29:05;4.30;99.90
26952;DHT22;14507;52.418;13.398;2023-12-22T15:31:31;4.40;99.90
26952;DHT22;14507;52.418;13.398;2023-12-22T15:33:57;4.30;99.90
26952;DHT22;14507;52.418;13.398;2023-12-22T15:36:23;4.30;99.90
26952;DHT22;14507;52.418;13.398;2023-12-22T15:38:49;4.30;99.90